Aérodrome :
LOGIN :

S'inscrire | Disclaimer

   EN    FR    IT 

 










Légende :    VFR   VFR Marginal   IFR   IFR Intensif   IFR Très Intensif
Visi : 
Plafond : 
>= 8 km
>= 3000ft
5 à 8 km
1000 à 3000 ft
1500m à 5 km
500 à 1000 ft
800 à 1500m
200 à 500 ft
< 800m
< 200 ft
Symboles :   Orages  Brouillard  Fortes neiges  Fortes précipitations  Vent > 20 kt
SIGMETs :   Divers  Orages  Givrage  Turbulence  Onde Orograph.  Cendres Volcan.






- Altitude de l'aérodrome : 0 ft


ENSL - Sleipner A Platform

DERNIER METAR :
  • 200120Z AUTO 19015KT 160V220 9999NDV BKN032/// 07/00 Q1016 W06/S3

METARs EXPIRÉS :
  • 200050Z AUTO 19013KT 150V220 9999NDV BKN032/// 07/00 Q1015 W06/S3
  • 200020Z AUTO 19012KT 9999NDV SCT032/// 07/00 Q1016 W06/S3
  • 192350Z AUTO 19013KT 9999NDV BKN032/// 07/00 Q1015 W05/S3
  • 192320Z AUTO 18011KT 9999NDV BKN033/// 07/00 Q1015 W05/S3
  • 192250Z AUTO 19012KT 140V230 9999NDV BKN033/// 07/M01 Q1015 W05/S3

Prévision TAF périmée.



MET'MAP, la Météo Aéronautique d'un coup d'oeil ! - Copyright ORBIFLY Décembre 2007 - Disclaimer

ORBIFLY MET'MAP TEAM :

Programmation & Développement : Alexandra Zaïnal
Conception & Développement : Baudouin d'Aumeries
Co-Programmation & Développement : Marc-Olivier Méhu
Soutien technique & logistique : Manuel Goepfert

Contact : metmap@orbifly.com




SOURCES & CREDITS :

   NOAA